createdAt,value
2023-04-22T00:01:47.036Z,7.55
2023-04-22T00:04:35.375Z,6.40
2023-04-22T00:07:23.706Z,5.90
2023-04-22T00:10:12.625Z,7.88
2023-04-22T00:13:00.745Z,5.57
2023-04-22T00:15:50.123Z,6.88
2023-04-22T00:18:38.234Z,7.25
2023-04-22T00:21:27.278Z,7.68
2023-04-22T00:24:15.444Z,6.97
2023-04-22T00:27:03.441Z,6.07
2023-04-22T00:29:51.476Z,7.18
2023-04-22T00:32:40.804Z,8.25
2023-04-22T00:35:29.012Z,7.85
2023-04-22T00:38:17.091Z,7.80
2023-04-22T00:41:05.485Z,7.63
2023-04-22T00:43:54.408Z,6.43
2023-04-22T00:46:42.629Z,6.63
2023-04-22T00:49:32.426Z,8.32
2023-04-22T00:52:20.493Z,7.47
2023-04-22T00:55:09.850Z,6.60
2023-04-22T00:58:01.492Z,7.57
2023-04-22T01:00:49.640Z,7.28
2023-04-22T01:03:39.616Z,7.80
2023-04-22T01:06:31.388Z,7.00
2023-04-22T01:09:20.506Z,6.25
2023-04-22T01:12:08.872Z,7.32
2023-04-22T01:14:57.110Z,6.18
2023-04-22T01:17:46.219Z,6.85
2023-04-22T01:20:34.330Z,6.53
2023-04-22T01:23:24.222Z,7.25
2023-04-22T01:26:12.505Z,9.80
2023-04-22T01:29:03.385Z,8.30
2023-04-22T01:31:51.895Z,5.60
2023-04-22T01:34:40.002Z,6.93
2023-04-22T01:37:28.037Z,7.75
2023-04-22T01:40:19.765Z,6.93
2023-04-22T01:43:08.178Z,8.10
2023-04-22T01:45:56.275Z,7.32
2023-04-22T01:48:50.230Z,7.60
2023-04-22T01:51:38.331Z,7.78
2023-04-22T01:54:26.644Z,9.18
2023-04-22T01:57:16.472Z,8.85
2023-04-22T02:00:05.975Z,6.55
2023-04-22T02:02:54.083Z,6.70
2023-04-22T02:05:42.227Z,8.55
2023-04-22T02:08:30.567Z,8.15
2023-04-22T02:11:18.606Z,9.45
2023-04-22T02:14:07.985Z,6.72
2023-04-22T02:16:56.036Z,7.53
2023-04-22T02:19:44.135Z,8.27
2023-04-22T02:22:33.001Z,6.95
2023-04-22T02:25:21.267Z,8.05
2023-04-22T02:28:09.299Z,7.93
2023-04-22T02:30:58.881Z,7.13
2023-04-22T02:33:46.953Z,8.73
2023-04-22T02:36:35.365Z,7.97
2023-04-22T02:39:23.399Z,7.95
2023-04-22T02:42:11.457Z,6.70
2023-04-22T02:44:59.540Z,7.57
2023-04-22T02:47:48.931Z,7.40
2023-04-22T02:50:37.037Z,9.15
2023-04-22T02:53:25.076Z,6.32
2023-04-22T02:56:13.514Z,8.15
2023-04-22T02:59:01.579Z,8.63
2023-04-22T03:01:49.642Z,7.93
2023-04-22T03:04:39.034Z,7.38
2023-04-22T03:07:27.129Z,7.30
2023-04-22T03:10:15.186Z,8.18
2023-04-22T03:13:03.336Z,6.38
2023-04-22T03:15:51.382Z,7.25
2023-04-22T03:18:39.413Z,8.95
2023-04-22T03:21:29.298Z,7.93
2023-04-22T03:24:17.325Z,9.23
2023-04-22T03:27:05.953Z,7.72
2023-04-22T03:29:53.985Z,8.10
2023-04-22T03:32:42.073Z,8.75
2023-04-22T03:35:30.169Z,8.02
2023-04-22T03:38:19.569Z,7.40
2023-04-22T03:41:07.827Z,9.90
2023-04-22T03:43:55.913Z,9.98
2023-04-22T03:46:43.961Z,10.30
2023-04-22T03:49:32.617Z,7.43
2023-04-22T03:52:20.684Z,6.97
2023-04-22T03:55:11.055Z,7.63
2023-04-22T03:57:59.448Z,7.45
2023-04-22T04:00:47.513Z,7.05
2023-04-22T04:03:35.878Z,7.72
2023-04-22T04:06:24.104Z,6.95
2023-04-22T04:09:12.149Z,7.20
2023-04-22T04:12:01.518Z,7.97
2023-04-22T04:14:49.543Z,7.95
2023-04-22T04:17:37.601Z,6.57
2023-04-22T04:20:25.783Z,6.57
2023-04-22T04:23:13.815Z,6.75
2023-04-22T04:26:02.899Z,6.60
2023-04-22T04:28:52.384Z,13.35
2023-04-22T04:31:40.434Z,8.95
2023-04-22T04:34:28.631Z,7.82
2023-04-22T04:37:17.569Z,6.90
2023-04-22T04:40:07.695Z,8.05
2023-04-22T04:42:55.783Z,8.43
2023-04-22T04:45:48.361Z,9.27
2023-04-22T04:48:36.893Z,8.52
2023-04-22T04:51:25.135Z,9.40
2023-04-22T04:54:13.150Z,9.13
2023-04-22T04:57:01.797Z,7.43
2023-04-22T04:59:49.818Z,7.50
2023-04-22T05:02:39.265Z,8.48
2023-04-22T05:05:27.430Z,15.07
2023-04-22T05:08:15.482Z,7.78
2023-04-22T05:11:03.503Z,8.02
2023-04-22T05:13:51.639Z,6.10
2023-04-22T05:16:39.701Z,8.00
2023-04-22T05:19:29.088Z,7.75
2023-04-22T05:22:17.966Z,6.97
2023-04-22T05:25:06.700Z,8.27
2023-04-22T05:27:54.769Z,8.50
2023-04-22T05:30:42.818Z,7.85
2023-04-22T05:33:30.869Z,6.65
2023-04-22T05:36:20.238Z,7.63
2023-04-22T05:39:08.342Z,7.10
2023-04-22T05:41:56.399Z,10.40
2023-04-22T05:44:44.424Z,10.80
2023-04-22T05:47:32.516Z,12.02
2023-04-22T05:50:21.312Z,9.40
2023-04-22T05:53:12.708Z,8.32
2023-04-22T05:56:00.785Z,8.23
2023-04-22T05:58:48.805Z,7.97
2023-04-22T06:01:37.439Z,9.77
2023-04-22T06:04:25.790Z,7.15
2023-04-22T06:07:14.120Z,7.43
2023-04-22T06:10:05.388Z,11.18
2023-04-22T06:12:53.812Z,8.75
2023-04-22T06:15:41.914Z,7.47
2023-04-22T06:18:30.009Z,6.60
2023-04-22T06:21:18.042Z,9.90
2023-04-22T06:24:06.320Z,10.52
2023-04-22T06:26:56.289Z,7.80
2023-04-22T06:29:44.335Z,9.23
2023-04-22T06:32:32.428Z,8.32
2023-04-22T06:35:21.128Z,7.38
2023-04-22T06:38:09.198Z,9.98
2023-04-22T06:40:57.208Z,7.88
2023-04-22T06:43:46.580Z,6.65
2023-04-22T06:46:34.721Z,9.65
2023-04-22T06:49:22.792Z,7.63
2023-04-22T06:52:10.830Z,7.00
2023-04-22T06:54:58.854Z,9.65
2023-04-22T06:57:46.906Z,7.13
2023-04-22T07:00:36.370Z,7.50
2023-04-22T07:03:24.935Z,8.70
2023-04-22T07:06:13.348Z,7.47
2023-04-22T07:09:01.403Z,8.02
2023-04-22T07:11:49.481Z,7.82
2023-04-22T07:14:38.482Z,7.53
2023-04-22T07:17:27.978Z,6.60
2023-04-22T07:20:16.081Z,7.18
2023-04-22T07:23:04.112Z,6.93
2023-04-22T07:25:52.163Z,10.85
2023-04-22T07:28:40.327Z,10.25
2023-04-22T07:31:28.422Z,9.57
2023-04-22T07:34:18.853Z,8.18
2023-04-22T07:37:07.440Z,7.75
2023-04-22T07:39:55.526Z,7.65
2023-04-22T07:42:43.688Z,7.30
2023-04-22T07:45:31.803Z,8.02
2023-04-22T07:48:19.853Z,9.23
2023-04-22T07:51:09.236Z,11.40
2023-04-22T07:53:57.281Z,9.68
2023-04-22T07:56:45.345Z,9.05
2023-04-22T07:59:33.387Z,7.25
2023-04-22T08:02:22.040Z,8.05
2023-04-22T08:05:10.477Z,7.85
2023-04-22T08:08:00.154Z,7.78
2023-04-22T08:10:48.276Z,9.23
2023-04-22T08:13:36.397Z,11.05
2023-04-22T08:16:24.576Z,9.45
2023-04-22T08:19:12.673Z,9.43
2023-04-22T08:22:01.248Z,8.10
2023-04-22T08:24:50.636Z,9.38
2023-04-22T08:27:38.861Z,7.03
2023-04-22T08:30:27.111Z,7.65
2023-04-22T08:33:15.227Z,8.52
2023-04-22T08:36:04.301Z,9.88
2023-04-22T08:38:52.465Z,8.43
2023-04-22T08:41:44.812Z,7.43
2023-04-22T08:44:33.181Z,6.80
2023-04-22T08:47:22.717Z,6.60
2023-04-22T08:50:11.564Z,11.10
2023-04-22T08:53:00.006Z,9.25
2023-04-22T08:55:50.013Z,7.15
2023-04-22T08:58:40.805Z,7.35
2023-04-22T09:01:31.185Z,6.70
2023-04-22T09:04:20.461Z,8.45
2023-04-22T09:07:09.155Z,7.15
2023-04-22T09:09:57.411Z,6.00
2023-04-22T09:12:45.883Z,7.00
2023-04-22T09:15:35.298Z,7.68
2023-04-22T09:18:23.363Z,10.43
2023-04-22T09:21:11.662Z,8.48
2023-04-22T09:24:02.944Z,6.82
2023-04-22T09:26:51.070Z,5.65
2023-04-22T09:29:39.476Z,4.72
2023-04-22T09:32:29.166Z,5.65
2023-04-22T09:35:17.369Z,5.10
2023-04-22T09:38:08.004Z,5.97
2023-04-22T09:40:56.072Z,4.03
2023-04-22T09:43:44.467Z,5.05
2023-04-22T09:46:33.695Z,5.60
2023-04-22T09:49:23.364Z,5.35
2023-04-22T09:52:11.769Z,6.40
2023-04-22T09:54:59.851Z,4.90
2023-04-22T09:57:47.970Z,6.70
2023-04-22T10:00:40.365Z,5.03
2023-04-22T10:03:28.491Z,6.45
2023-04-22T10:06:18.022Z,5.85
2023-04-22T10:09:09.302Z,6.22
2023-04-22T10:11:59.147Z,6.03
2023-04-22T10:14:47.297Z,6.07
2023-04-22T10:17:39.051Z,5.72
2023-04-22T10:20:29.702Z,5.15
2023-04-22T10:23:22.121Z,5.03
2023-04-22T10:26:10.682Z,4.78
2023-04-22T10:28:59.098Z,4.97
2023-04-22T10:31:54.224Z,5.22
2023-04-22T10:34:42.328Z,6.25
2023-04-22T10:37:32.345Z,5.00
2023-04-22T10:40:23.831Z,5.60
2023-04-22T10:43:14.109Z,4.57
2023-04-22T10:46:02.204Z,5.38
2023-04-22T10:48:52.033Z,5.38
2023-04-22T10:51:41.093Z,5.32
2023-04-22T10:54:58.381Z,4.70
2023-04-22T10:57:49.303Z,4.63
2023-04-22T11:00:53.160Z,5.78
2023-04-22T11:03:42.293Z,6.00
2023-04-22T11:06:31.183Z,5.05
2023-04-22T11:09:19.246Z,5.40
2023-04-22T11:12:45.087Z,4.80
2023-04-22T11:15:37.155Z,4.35
2023-04-22T11:18:27.135Z,5.32
2023-04-22T11:21:15.875Z,4.38
2023-04-22T11:24:06.182Z,4.53
2023-04-22T11:26:58.208Z,4.90
2023-04-22T11:30:01.098Z,5.97
2023-04-22T11:32:52.020Z,4.60
2023-04-22T11:35:40.260Z,4.22
2023-04-22T11:38:28.707Z,5.00
2023-04-22T11:41:22.095Z,6.90
2023-04-22T11:44:10.840Z,4.85
2023-04-22T11:46:59.033Z,4.70
2023-04-22T11:49:59.012Z,4.70
2023-04-22T11:52:50.352Z,4.93
2023-04-22T11:55:41.027Z,5.05
2023-04-22T11:58:29.241Z,4.40
2023-04-22T12:01:19.090Z,4.53
2023-04-22T12:04:08.651Z,4.40
2023-04-22T12:06:58.378Z,5.35
2023-04-22T12:09:46.642Z,4.82
2023-04-22T12:12:37.183Z,6.47
2023-04-22T12:15:25.564Z,4.40
2023-04-22T12:18:14.313Z,4.30
2023-04-22T12:21:09.559Z,5.55
2023-04-22T12:24:00.791Z,4.65
2023-04-22T12:26:49.126Z,4.32
2023-04-22T12:29:37.641Z,4.30
2023-04-22T12:32:27.794Z,5.00
2023-04-22T12:35:16.191Z,4.22
2023-04-22T12:38:04.432Z,4.60
2023-04-22T12:40:54.015Z,5.07
2023-04-22T12:43:42.173Z,4.10
2023-04-22T12:46:30.524Z,4.70
2023-04-22T12:49:18.976Z,4.13
2023-04-22T12:52:07.755Z,4.30
2023-04-22T12:54:55.987Z,4.10
2023-04-22T12:57:46.365Z,3.67
2023-04-22T13:00:34.692Z,4.75
2023-04-22T13:03:23.062Z,4.55
2023-04-22T13:06:11.351Z,4.63
2023-04-22T13:08:59.745Z,4.38
2023-04-22T13:11:49.306Z,4.30
2023-04-22T13:14:39.014Z,4.05
2023-04-22T13:17:27.791Z,4.88
2023-04-22T13:20:16.496Z,4.50
2023-04-22T13:23:05.665Z,4.38
2023-04-22T13:25:54.011Z,4.10
2023-04-22T13:28:42.621Z,4.53
2023-04-22T13:31:32.115Z,5.18
2023-04-22T13:34:20.482Z,4.07
2023-04-22T13:37:08.838Z,3.92
2023-04-22T13:39:57.058Z,4.40
2023-04-22T13:42:45.280Z,7.38
2023-04-22T13:45:33.494Z,4.72
2023-04-22T13:48:23.151Z,4.03
2023-04-22T13:51:11.306Z,4.47
2023-04-22T13:53:59.530Z,4.80
2023-04-22T13:56:48.256Z,4.20
2023-04-22T13:59:36.944Z,5.63
2023-04-22T14:02:25.385Z,4.68
2023-04-22T14:05:15.104Z,4.80
2023-04-22T14:08:03.419Z,4.55
2023-04-22T14:10:51.752Z,4.35
2023-04-22T14:13:40.491Z,4.40
2023-04-22T14:16:28.942Z,4.80
2023-04-22T14:19:17.186Z,4.35
2023-04-22T14:22:07.179Z,3.88
2023-04-22T14:24:55.720Z,5.43
2023-04-22T14:27:44.147Z,4.68
2023-04-22T14:30:32.805Z,4.30
2023-04-22T14:33:21.308Z,4.13
2023-04-22T14:36:09.739Z,4.35
2023-04-22T14:38:59.399Z,4.15
2023-04-22T14:41:47.640Z,4.18
2023-04-22T14:44:36.313Z,4.32
2023-04-22T14:47:24.587Z,4.63
2023-04-22T14:50:12.813Z,4.05
2023-04-22T14:53:01.546Z,3.63
2023-04-22T14:55:51.115Z,5.40
2023-04-22T14:58:39.404Z,4.47
2023-04-22T15:01:27.700Z,3.83
2023-04-22T15:04:16.690Z,3.95
2023-04-22T15:07:06.260Z,3.90
2023-04-22T15:09:55.796Z,4.43
2023-04-22T15:12:45.873Z,4.20
2023-04-22T15:15:34.201Z,4.38
2023-04-22T15:18:22.485Z,4.80
2023-04-22T15:21:10.842Z,4.00
2023-04-22T15:23:59.240Z,3.95
2023-04-22T15:26:47.837Z,4.43
2023-04-22T15:29:37.792Z,4.97
2023-04-22T15:32:26.224Z,4.18
2023-04-22T15:35:14.585Z,4.53
2023-04-22T15:38:03.021Z,3.78
2023-04-22T15:40:51.482Z,3.40
2023-04-22T15:43:39.692Z,4.43
2023-04-22T15:46:33.101Z,4.32
2023-04-22T15:49:21.309Z,4.38
2023-04-22T15:52:09.549Z,3.90
2023-04-22T15:54:57.748Z,3.35
2023-04-22T15:57:45.915Z,4.18
2023-04-22T16:00:34.076Z,4.13
2023-04-22T16:03:23.778Z,4.93
2023-04-22T16:06:11.955Z,5.68
2023-04-22T16:09:00.276Z,4.45
2023-04-22T16:11:48.580Z,4.35
2023-04-22T16:14:36.869Z,4.47
2023-04-22T16:17:26.204Z,3.67
2023-04-22T16:20:15.763Z,4.35
2023-04-22T16:23:04.016Z,4.78
2023-04-22T16:25:52.289Z,4.55
2023-04-22T16:28:40.548Z,4.25
2023-04-22T16:31:28.845Z,4.07
2023-04-22T16:34:17.203Z,4.00
2023-04-22T16:37:07.018Z,4.20
2023-04-22T16:39:55.445Z,4.40
2023-04-22T16:42:43.725Z,4.22
2023-04-22T16:45:32.373Z,4.40
2023-04-22T16:48:20.692Z,3.75
2023-04-22T16:51:09.271Z,4.35
2023-04-22T16:53:59.150Z,3.67
2023-04-22T16:56:47.399Z,3.72
2023-04-22T16:59:36.053Z,4.10
2023-04-22T17:02:24.604Z,3.72
2023-04-22T17:05:13.132Z,4.07
2023-04-22T17:08:01.433Z,3.47
2023-04-22T17:10:52.553Z,3.80
2023-04-22T17:13:41.628Z,3.83
2023-04-22T17:16:30.035Z,3.60
2023-04-22T17:19:18.640Z,3.70
2023-04-22T17:22:07.028Z,3.75
2023-04-22T17:24:56.729Z,3.83
2023-04-22T17:27:46.390Z,4.30
2023-04-22T17:30:34.600Z,3.47
2023-04-22T17:33:22.914Z,4.15
2023-04-22T17:36:11.472Z,3.88
2023-04-22T17:38:59.770Z,3.83
2023-04-22T17:41:48.195Z,4.47
2023-04-22T17:44:38.023Z,3.92
2023-04-22T17:47:26.533Z,4.07
2023-04-22T17:50:15.070Z,4.30
2023-04-22T17:53:03.462Z,4.03
2023-04-22T17:55:51.788Z,3.88
2023-04-22T17:58:39.993Z,3.50
2023-04-22T18:01:30.042Z,3.78
2023-04-22T18:04:18.673Z,4.18
2023-04-22T18:07:06.974Z,4.00
2023-04-22T18:09:55.386Z,4.03
2023-04-22T18:12:43.734Z,4.00
2023-04-22T18:15:32.040Z,3.90
2023-04-22T18:18:21.866Z,4.43
2023-04-22T18:21:10.256Z,4.32
2023-04-22T18:23:58.990Z,4.68
2023-04-22T18:26:48.749Z,4.38
2023-04-22T18:29:37.137Z,3.70
2023-04-22T18:32:25.511Z,3.90
2023-04-22T18:35:15.920Z,4.90
2023-04-22T18:38:04.134Z,3.65
2023-04-22T18:40:52.304Z,4.00
2023-04-22T18:43:40.467Z,5.78
2023-04-22T18:46:28.688Z,3.88
2023-04-22T18:49:17.031Z,4.07
2023-04-22T18:52:06.691Z,4.60
2023-04-22T18:54:54.939Z,4.95
2023-04-22T18:57:43.748Z,3.92
2023-04-22T19:00:32.042Z,4.75
2023-04-22T19:03:20.813Z,5.10
2023-04-22T19:06:09.290Z,4.30
2023-04-22T19:08:58.953Z,4.82
2023-04-22T19:11:47.202Z,4.65
2023-04-22T19:14:35.473Z,4.38
2023-04-22T19:17:23.601Z,4.47
2023-04-22T19:20:12.460Z,5.22
2023-04-22T19:23:00.988Z,5.13
2023-04-22T19:25:50.597Z,7.25
2023-04-22T19:28:38.707Z,4.88
2023-04-22T19:31:29.160Z,6.97
2023-04-22T19:34:17.302Z,6.85
2023-04-22T19:37:05.717Z,7.38
2023-04-22T19:39:53.805Z,7.57
2023-04-22T19:42:43.715Z,6.80
2023-04-22T19:45:31.903Z,7.65
2023-04-22T19:48:20.592Z,8.85
2023-04-22T19:51:10.110Z,5.10
2023-04-22T19:53:58.743Z,8.73
2023-04-22T19:56:47.679Z,8.75
2023-04-22T19:59:37.529Z,10.45
2023-04-22T20:02:26.937Z,6.25
2023-04-22T20:05:16.706Z,7.43
2023-04-22T20:08:05.544Z,10.43
2023-04-22T20:10:54.952Z,9.60
2023-04-22T20:13:43.418Z,8.50
2023-04-22T20:16:34.522Z,9.40
2023-04-22T20:19:22.833Z,8.00
2023-04-22T20:22:12.998Z,7.70
2023-04-22T20:25:04.007Z,9.02
2023-04-22T20:27:52.744Z,8.75
2023-04-22T20:30:41.556Z,5.78
2023-04-22T20:33:31.242Z,9.15
2023-04-22T20:36:22.275Z,8.63
2023-04-22T20:39:14.304Z,8.27
2023-04-22T20:42:02.901Z,9.35
2023-04-22T20:44:51.450Z,11.05
2023-04-22T20:47:39.551Z,11.77
2023-04-22T20:50:33.379Z,8.48
2023-04-22T20:53:21.670Z,13.00
2023-04-22T20:56:09.859Z,9.50
2023-04-22T20:58:57.892Z,10.23
2023-04-22T21:01:48.213Z,12.60
2023-04-22T21:04:37.265Z,11.93
2023-04-22T21:07:30.704Z,12.13
2023-04-22T21:10:19.723Z,11.13
2023-04-22T21:13:08.004Z,12.00
2023-04-22T21:15:59.556Z,12.45
2023-04-22T21:18:48.861Z,12.40
2023-04-22T21:21:38.366Z,10.48
2023-04-22T21:24:30.439Z,9.38
2023-04-22T21:27:19.590Z,11.00
2023-04-22T21:30:09.175Z,11.93
2023-04-22T21:32:57.356Z,10.02
2023-04-22T21:35:45.890Z,14.38
2023-04-22T21:38:33.963Z,8.57
2023-04-22T21:41:23.424Z,11.82
2023-04-22T21:44:11.489Z,10.88
2023-04-22T21:46:59.546Z,9.70
2023-04-22T21:49:47.702Z,10.45
2023-04-22T21:52:35.991Z,9.95
2023-04-22T21:55:24.043Z,9.82
2023-04-22T21:58:13.634Z,14.85
2023-04-22T22:01:01.674Z,11.65
2023-04-22T22:03:49.966Z,12.93
2023-04-22T22:06:38.161Z,11.85
2023-04-22T22:09:26.517Z,20.90
2023-04-22T22:12:15.509Z,9.05
2023-04-22T22:15:06.138Z,7.85
2023-04-22T22:17:54.191Z,23.40
2023-04-22T22:20:42.285Z,20.48
2023-04-22T22:23:30.415Z,13.45
2023-04-22T22:26:18.448Z,16.75
2023-04-22T22:29:06.532Z,31.42
2023-04-22T22:31:55.905Z,15.05
2023-04-22T22:34:44.654Z,15.82
2023-04-22T22:37:33.557Z,21.63
2023-04-22T22:40:21.717Z,13.05
2023-04-22T22:43:09.730Z,13.82
2023-04-22T22:45:58.002Z,12.35
2023-04-22T22:48:47.836Z,17.77
2023-04-22T22:51:37.428Z,11.98
2023-04-22T22:54:25.562Z,12.75
2023-04-22T22:57:13.578Z,16.35
2023-04-22T23:00:01.611Z,12.20
2023-04-22T23:02:49.794Z,12.48
2023-04-22T23:05:39.351Z,12.68
2023-04-22T23:08:27.406Z,13.35
2023-04-22T23:11:15.472Z,11.52
2023-04-22T23:14:03.585Z,15.98
2023-04-22T23:16:51.834Z,12.85
2023-04-22T23:19:42.312Z,11.85
2023-04-22T23:22:33.009Z,11.10
2023-04-22T23:25:21.327Z,11.23
2023-04-22T23:28:09.968Z,10.68
2023-04-22T23:30:58.712Z,10.20
2023-04-22T23:33:50.758Z,8.32
2023-04-22T23:36:39.302Z,8.85
2023-04-22T23:39:28.818Z,9.20
2023-04-22T23:42:16.840Z,9.73
2023-04-22T23:45:05.535Z,13.40
2023-04-22T23:47:53.672Z,16.23
2023-04-22T23:50:41.732Z,13.40
2023-04-22T23:53:29.813Z,18.67
2023-04-22T23:56:22.788Z,14.85
2023-04-22T23:59:11.427Z,9.02
